sensor_id;sensor_type;location;lat;lon;timestamp;P1;P2;P0
67892;PMS7003;54688;52.376;16.744;2022-09-01T00:00:22;3;3;
67892;PMS7003;54688;52.376;16.744;2022-09-01T00:03:38;5;5;
67892;PMS7003;54688;52.376;16.744;2022-09-01T00:06:40;4;2;
67892;PMS7003;54688;52.376;16.744;2022-09-01T00:12:43;4;4;
67892;PMS7003;54688;52.376;16.744;2022-09-01T00:15:45;4;4;
67892;PMS7003;54688;52.376;16.744;2022-09-01T00:18:50;2;2;
67892;PMS7003;54688;52.376;16.744;2022-09-01T00:21:55;4;4;
67892;PMS7003;54688;52.376;16.744;2022-09-01T00:24:57;3;3;
67892;PMS7003;54688;52.376;16.744;2022-09-01T00:27:59;4;4;
67892;PMS7003;54688;52.376;16.744;2022-09-01T00:34:01;4;4;
67892;PMS7003;54688;52.376;16.744;2022-09-01T00:37:04;7;4;
67892;PMS7003;54688;52.376;16.744;2022-09-01T00:40:08;5;4;
67892;PMS7003;54688;52.376;16.744;2022-09-01T00:43:12;4;4;
67892;PMS7003;54688;52.376;16.744;2022-09-01T00:46:17;4;3;
67892;PMS7003;54688;52.376;16.744;2022-09-01T00:49:26;4;4;
67892;PMS7003;54688;52.376;16.744;2022-09-01T00:52:32;5;3;
67892;PMS7003;54688;52.376;16.744;2022-09-01T00:55:36;5;5;
67892;PMS7003;54688;52.376;16.744;2022-09-01T00:58:39;5;5;
67892;PMS7003;54688;52.376;16.744;2022-09-01T01:01:41;5;5;
67892;PMS7003;54688;52.376;16.744;2022-09-01T01:04:44;4;3;
67892;PMS7003;54688;52.376;16.744;2022-09-01T01:07:47;4;4;
67892;PMS7003;54688;52.376;16.744;2022-09-01T01:10:52;6;4;
67892;PMS7003;54688;52.376;16.744;2022-09-01T01:13:58;6;5;
67892;PMS7003;54688;52.376;16.744;2022-09-01T01:17:00;3;3;
67892;PMS7003;54688;52.376;16.744;2022-09-01T01:20:04;8;7;
67892;PMS7003;54688;52.376;16.744;2022-09-01T01:23:14;5;3;
67892;PMS7003;54688;52.376;16.744;2022-09-01T01:26:18;6;3;
67892;PMS7003;54688;52.376;16.744;2022-09-01T01:29:19;3;3;
67892;PMS7003;54688;52.376;16.744;2022-09-01T01:32:21;3;3;
67892;PMS7003;54688;52.376;16.744;2022-09-01T01:35:23;5;3;
67892;PMS7003;54688;52.376;16.744;2022-09-01T01:38:25;5;4;
67892;PMS7003;54688;52.376;16.744;2022-09-01T01:41:28;4;4;
67892;PMS7003;54688;52.376;16.744;2022-09-01T01:44:31;7;3;
67892;PMS7003;54688;52.376;16.744;2022-09-01T01:47:33;4;4;
67892;PMS7003;54688;52.376;16.744;2022-09-01T01:50:36;3;2;
67892;PMS7003;54688;52.376;16.744;2022-09-01T01:53:38;3;3;
67892;PMS7003;54688;52.376;16.744;2022-09-01T01:56:40;5;5;
67892;PMS7003;54688;52.376;16.744;2022-09-01T01:59:43;4;4;
67892;PMS7003;54688;52.376;16.744;2022-09-01T02:02:45;4;4;
67892;PMS7003;54688;52.376;16.744;2022-09-01T02:05:49;5;3;
67892;PMS7003;54688;52.376;16.744;2022-09-01T02:08:54;4;3;
67892;PMS7003;54688;52.376;16.744;2022-09-01T02:11:58;4;4;
67892;PMS7003;54688;52.376;16.744;2022-09-01T02:15:00;5;5;
67892;PMS7003;54688;52.376;16.744;2022-09-01T02:18:02;5;5;
67892;PMS7003;54688;52.376;16.744;2022-09-01T02:21:08;5;5;
67892;PMS7003;54688;52.376;16.744;2022-09-01T02:24:11;4;4;
67892;PMS7003;54688;52.376;16.744;2022-09-01T02:27:12;8;4;
67892;PMS7003;54688;52.376;16.744;2022-09-01T02:30:15;8;5;
67892;PMS7003;54688;52.376;16.744;2022-09-01T02:33:18;4;4;
67892;PMS7003;54688;52.376;16.744;2022-09-01T02:36:21;9;7;
67892;PMS7003;54688;52.376;16.744;2022-09-01T02:39:26;7;5;
67892;PMS7003;54688;52.376;16.744;2022-09-01T02:42:28;4;4;
67892;PMS7003;54688;52.376;16.744;2022-09-01T02:45:30;6;6;
67892;PMS7003;54688;52.376;16.744;2022-09-01T02:48:34;8;5;
67892;PMS7003;54688;52.376;16.744;2022-09-01T02:51:37;4;4;
67892;PMS7003;54688;52.376;16.744;2022-09-01T02:54:39;6;6;
67892;PMS7003;54688;52.376;16.744;2022-09-01T02:57:41;4;4;
67892;PMS7003;54688;52.376;16.744;2022-09-01T03:00:43;10;5;
67892;PMS7003;54688;52.376;16.744;2022-09-01T03:03:45;4;4;
67892;PMS7003;54688;52.376;16.744;2022-09-01T03:06:48;5;5;
67892;PMS7003;54688;52.376;16.744;2022-09-01T03:09:50;6;4;
67892;PMS7003;54688;52.376;16.744;2022-09-01T03:12:53;5;5;
67892;PMS7003;54688;52.376;16.744;2022-09-01T03:15:55;3;3;
67892;PMS7003;54688;52.376;16.744;2022-09-01T03:18:58;5;5;
67892;PMS7003;54688;52.376;16.744;2022-09-01T03:22:00;7;6;
67892;PMS7003;54688;52.376;16.744;2022-09-01T03:25:04;10;6;
67892;PMS7003;54688;52.376;16.744;2022-09-01T03:28:06;9;8;
67892;PMS7003;54688;52.376;16.744;2022-09-01T03:31:09;7;6;
67892;PMS7003;54688;52.376;16.744;2022-09-01T03:34:12;6;5;
67892;PMS7003;54688;52.376;16.744;2022-09-01T03:37:15;5;5;
67892;PMS7003;54688;52.376;16.744;2022-09-01T03:40:17;8;6;
67892;PMS7003;54688;52.376;16.744;2022-09-01T03:43:19;11;8;
67892;PMS7003;54688;52.376;16.744;2022-09-01T03:46:21;6;5;
67892;PMS7003;54688;52.376;16.744;2022-09-01T03:49:23;8;6;
67892;PMS7003;54688;52.376;16.744;2022-09-01T03:52:25;6;5;
67892;PMS7003;54688;52.376;16.744;2022-09-01T03:55:29;6;6;
67892;PMS7003;54688;52.376;16.744;2022-09-01T03:58:31;6;5;
67892;PMS7003;54688;52.376;16.744;2022-09-01T04:01:33;10;7;
67892;PMS7003;54688;52.376;16.744;2022-09-01T04:04:35;7;7;
67892;PMS7003;54688;52.376;16.744;2022-09-01T04:07:38;6;5;
67892;PMS7003;54688;52.376;16.744;2022-09-01T04:10:43;9;8;
67892;PMS7003;54688;52.376;16.744;2022-09-01T04:13:46;10;7;
67892;PMS7003;54688;52.376;16.744;2022-09-01T04:16:49;8;7;
67892;PMS7003;54688;52.376;16.744;2022-09-01T04:19:51;9;9;
67892;PMS7003;54688;52.376;16.744;2022-09-01T04:22:52;12;11;
67892;PMS7003;54688;52.376;16.744;2022-09-01T04:25:57;10;8;
67892;PMS7003;54688;52.376;16.744;2022-09-01T04:28:59;12;9;
67892;PMS7003;54688;52.376;16.744;2022-09-01T04:32:08;8;8;
67892;PMS7003;54688;52.376;16.744;2022-09-01T04:35:11;6;6;
67892;PMS7003;54688;52.376;16.744;2022-09-01T04:38:13;6;6;
67892;PMS7003;54688;52.376;16.744;2022-09-01T04:44:15;10;9;
67892;PMS7003;54688;52.376;16.744;2022-09-01T04:47:18;8;8;
67892;PMS7003;54688;52.376;16.744;2022-09-01T04:50:20;10;8;
67892;PMS7003;54688;52.376;16.744;2022-09-01T04:53:22;7;7;
67892;PMS7003;54688;52.376;16.744;2022-09-01T04:56:25;9;8;
67892;PMS7003;54688;52.376;16.744;2022-09-01T04:59:28;8;7;
67892;PMS7003;54688;52.376;16.744;2022-09-01T05:02:30;7;6;
67892;PMS7003;54688;52.376;16.744;2022-09-01T05:05:37;9;6;
67892;PMS7003;54688;52.376;16.744;2022-09-01T05:08:40;7;7;
67892;PMS7003;54688;52.376;16.744;2022-09-01T05:11:42;9;7;
67892;PMS7003;54688;52.376;16.744;2022-09-01T05:14:46;8;8;
67892;PMS7003;54688;52.376;16.744;2022-09-01T05:17:48;9;7;
67892;PMS7003;54688;52.376;16.744;2022-09-01T05:20:51;10;7;
67892;PMS7003;54688;52.376;16.744;2022-09-01T05:23:54;6;5;
67892;PMS7003;54688;52.376;16.744;2022-09-01T05:26:57;6;6;
67892;PMS7003;54688;52.376;16.744;2022-09-01T05:29:59;5;5;
67892;PMS7003;54688;52.376;16.744;2022-09-01T05:33:01;3;3;
67892;PMS7003;54688;52.376;16.744;2022-09-01T05:36:03;5;5;
67892;PMS7003;54688;52.376;16.744;2022-09-01T05:39:06;7;5;
67892;PMS7003;54688;52.376;16.744;2022-09-01T05:45:08;8;6;
67892;PMS7003;54688;52.376;16.744;2022-09-01T05:48:11;6;4;
67892;PMS7003;54688;52.376;16.744;2022-09-01T05:51:15;5;4;
67892;PMS7003;54688;52.376;16.744;2022-09-01T05:54:20;6;4;
67892;PMS7003;54688;52.376;16.744;2022-09-01T05:57:24;4;4;
67892;PMS7003;54688;52.376;16.744;2022-09-01T06:00:26;5;4;
67892;PMS7003;54688;52.376;16.744;2022-09-01T06:03:28;3;3;
67892;PMS7003;54688;52.376;16.744;2022-09-01T06:06:35;1;1;
67892;PMS7003;54688;52.376;16.744;2022-09-01T06:09:40;1;1;
67892;PMS7003;54688;52.376;16.744;2022-09-01T06:12:42;4;2;
67892;PMS7003;54688;52.376;16.744;2022-09-01T06:15:45;3;3;
67892;PMS7003;54688;52.376;16.744;2022-09-01T06:18:47;4;3;
67892;PMS7003;54688;52.376;16.744;2022-09-01T06:21:49;3;2;
67892;PMS7003;54688;52.376;16.744;2022-09-01T06:24:51;1;1;
67892;PMS7003;54688;52.376;16.744;2022-09-01T06:27:53;2;1;
67892;PMS7003;54688;52.376;16.744;2022-09-01T06:30:56;1;1;
67892;PMS7003;54688;52.376;16.744;2022-09-01T06:34:01;1;1;
67892;PMS7003;54688;52.376;16.744;2022-09-01T06:37:04;1;1;
67892;PMS7003;54688;52.376;16.744;2022-09-01T06:43:07;2;1;
67892;PMS7003;54688;52.376;16.744;2022-09-01T06:46:10;2;1;
67892;PMS7003;54688;52.376;16.744;2022-09-01T06:49:12;2;2;
67892;PMS7003;54688;52.376;16.744;2022-09-01T06:52:14;1;0;
67892;PMS7003;54688;52.376;16.744;2022-09-01T06:58:15;0;0;
67892;PMS7003;54688;52.376;16.744;2022-09-01T07:01:18;0;0;
67892;PMS7003;54688;52.376;16.744;2022-09-01T07:04:21;0;0;
67892;PMS7003;54688;52.376;16.744;2022-09-01T07:07:24;0;0;
67892;PMS7003;54688;52.376;16.744;2022-09-01T07:10:26;1;0;
67892;PMS7003;54688;52.376;16.744;2022-09-01T07:13:28;0;0;
67892;PMS7003;54688;52.376;16.744;2022-09-01T07:16:33;0;0;
67892;PMS7003;54688;52.376;16.744;2022-09-01T07:19:37;1;1;
67892;PMS7003;54688;52.376;16.744;2022-09-01T07:22:40;0;0;
67892;PMS7003;54688;52.376;16.744;2022-09-01T07:25:44;0;0;
67892;PMS7003;54688;52.376;16.744;2022-09-01T07:28:48;0;0;
67892;PMS7003;54688;52.376;16.744;2022-09-01T07:31:50;0;0;
67892;PMS7003;54688;52.376;16.744;2022-09-01T07:34:53;0;0;
67892;PMS7003;54688;52.376;16.744;2022-09-01T07:37:56;0;0;
67892;PMS7003;54688;52.376;16.744;2022-09-01T07:40:58;0;0;
67892;PMS7003;54688;52.376;16.744;2022-09-01T07:44:01;0;0;
67892;PMS7003;54688;52.376;16.744;2022-09-01T07:47:04;0;0;
67892;PMS7003;54688;52.376;16.744;2022-09-01T07:50:08;0;0;
67892;PMS7003;54688;52.376;16.744;2022-09-01T07:53:10;3;0;
67892;PMS7003;54688;52.376;16.744;2022-09-01T07:56:14;0;0;
67892;PMS7003;54688;52.376;16.744;2022-09-01T07:59:16;0;0;
67892;PMS7003;54688;52.376;16.744;2022-09-01T08:05:18;0;0;
67892;PMS7003;54688;52.376;16.744;2022-09-01T08:08:20;0;0;
67892;PMS7003;54688;52.376;16.744;2022-09-01T08:11:25;1;0;
67892;PMS7003;54688;52.376;16.744;2022-09-01T08:14:27;0;0;
67892;PMS7003;54688;52.376;16.744;2022-09-01T08:17:31;2;0;
67892;PMS7003;54688;52.376;16.744;2022-09-01T08:20:37;0;0;
67892;PMS7003;54688;52.376;16.744;2022-09-01T08:23:40;0;0;
67892;PMS7003;54688;52.376;16.744;2022-09-01T08:26:42;0;0;
67892;PMS7003;54688;52.376;16.744;2022-09-01T08:29:44;0;0;
67892;PMS7003;54688;52.376;16.744;2022-09-01T08:32:47;0;0;
67892;PMS7003;54688;52.376;16.744;2022-09-01T08:35:50;0;0;
67892;PMS7003;54688;52.376;16.744;2022-09-01T08:38:52;1;0;
67892;PMS7003;54688;52.376;16.744;2022-09-01T08:41:57;0;0;
67892;PMS7003;54688;52.376;16.744;2022-09-01T08:45:09;0;0;
67892;PMS7003;54688;52.376;16.744;2022-09-01T08:48:15;0;0;
67892;PMS7003;54688;52.376;16.744;2022-09-01T08:51:22;0;0;
67892;PMS7003;54688;52.376;16.744;2022-09-01T08:54:31;0;0;
67892;PMS7003;54688;52.376;16.744;2022-09-01T08:57:39;0;0;
67892;PMS7003;54688;52.376;16.744;2022-09-01T09:00:44;1;1;
67892;PMS7003;54688;52.376;16.744;2022-09-01T09:03:53;0;0;
67892;PMS7003;54688;52.376;16.744;2022-09-01T09:07:05;0;0;
67892;PMS7003;54688;52.376;16.744;2022-09-01T09:10:14;1;0;
67892;PMS7003;54688;52.376;16.744;2022-09-01T09:13:21;0;0;
67892;PMS7003;54688;52.376;16.744;2022-09-01T09:16:29;0;0;
67892;PMS7003;54688;52.376;16.744;2022-09-01T09:19:36;0;0;
67892;PMS7003;54688;52.376;16.744;2022-09-01T09:22:38;0;0;
67892;PMS7003;54688;52.376;16.744;2022-09-01T09:25:41;0;0;
67892;PMS7003;54688;52.376;16.744;2022-09-01T09:28:44;0;0;
67892;PMS7003;54688;52.376;16.744;2022-09-01T09:31:47;0;0;
67892;PMS7003;54688;52.376;16.744;2022-09-01T09:34:51;0;0;
67892;PMS7003;54688;52.376;16.744;2022-09-01T09:37:54;0;0;
67892;PMS7003;54688;52.376;16.744;2022-09-01T09:40:59;0;0;
67892;PMS7003;54688;52.376;16.744;2022-09-01T09:44:05;1;0;
67892;PMS7003;54688;52.376;16.744;2022-09-01T09:47:34;0;0;
67892;PMS7003;54688;52.376;16.744;2022-09-01T09:50:37;0;0;
67892;PMS7003;54688;52.376;16.744;2022-09-01T09:53:40;0;0;
67892;PMS7003;54688;52.376;16.744;2022-09-01T09:56:42;0;0;
67892;PMS7003;54688;52.376;16.744;2022-09-01T09:59:46;0;0;
67892;PMS7003;54688;52.376;16.744;2022-09-01T10:02:53;0;0;
67892;PMS7003;54688;52.376;16.744;2022-09-01T10:05:55;0;0;
67892;PMS7003;54688;52.376;16.744;2022-09-01T10:08:58;1;0;
67892;PMS7003;54688;52.376;16.744;2022-09-01T10:12:01;0;0;
67892;PMS7003;54688;52.376;16.744;2022-09-01T10:15:08;0;0;
67892;PMS7003;54688;52.376;16.744;2022-09-01T10:18:13;0;0;
67892;PMS7003;54688;52.376;16.744;2022-09-01T10:21:22;0;0;
67892;PMS7003;54688;52.376;16.744;2022-09-01T10:24:29;1;0;
67892;PMS7003;54688;52.376;16.744;2022-09-01T10:27:35;0;0;
67892;PMS7003;54688;52.376;16.744;2022-09-01T10:30:41;0;0;
67892;PMS7003;54688;52.376;16.744;2022-09-01T10:33:44;0;0;
67892;PMS7003;54688;52.376;16.744;2022-09-01T10:36:48;0;0;
67892;PMS7003;54688;52.376;16.744;2022-09-01T10:40:54;0;0;
67892;PMS7003;54688;52.376;16.744;2022-09-01T10:44:07;0;0;
67892;PMS7003;54688;52.376;16.744;2022-09-01T10:47:24;0;0;
67892;PMS7003;54688;52.376;16.744;2022-09-01T10:50:30;0;0;
67892;PMS7003;54688;52.376;16.744;2022-09-01T10:53:37;0;0;
67892;PMS7003;54688;52.376;16.744;2022-09-01T10:56:42;0;0;
67892;PMS7003;54688;52.376;16.744;2022-09-01T10:59:46;0;0;
67892;PMS7003;54688;52.376;16.744;2022-09-01T11:03:32;0;0;
67892;PMS7003;54688;52.376;16.744;2022-09-01T11:06:50;1;0;
67892;PMS7003;54688;52.376;16.744;2022-09-01T11:10:13;2;0;
67892;PMS7003;54688;52.376;16.744;2022-09-01T11:13:29;0;0;
67892;PMS7003;54688;52.376;16.744;2022-09-01T11:16:34;0;0;
67892;PMS7003;54688;52.376;16.744;2022-09-01T11:19:39;1;0;
67892;PMS7003;54688;52.376;16.744;2022-09-01T11:22:58;0;0;
67892;PMS7003;54688;52.376;16.744;2022-09-01T11:26:43;0;0;
67892;PMS7003;54688;52.376;16.744;2022-09-01T11:29:52;0;0;
67892;PMS7003;54688;52.376;16.744;2022-09-01T11:32:59;0;0;
67892;PMS7003;54688;52.376;16.744;2022-09-01T11:36:10;0;0;
67892;PMS7003;54688;52.376;16.744;2022-09-01T11:39:28;0;0;
67892;PMS7003;54688;52.376;16.744;2022-09-01T11:42:37;0;0;
67892;PMS7003;54688;52.376;16.744;2022-09-01T11:45:43;0;0;
67892;PMS7003;54688;52.376;16.744;2022-09-01T11:48:51;0;0;
67892;PMS7003;54688;52.376;16.744;2022-09-01T11:51:54;0;0;
67892;PMS7003;54688;52.376;16.744;2022-09-01T11:54:58;0;0;
67892;PMS7003;54688;52.376;16.744;2022-09-01T11:58:01;0;0;
67892;PMS7003;54688;52.376;16.744;2022-09-01T12:01:15;1;0;
67892;PMS7003;54688;52.376;16.744;2022-09-01T12:04:19;0;0;
67892;PMS7003;54688;52.376;16.744;2022-09-01T12:07:26;0;0;
67892;PMS7003;54688;52.376;16.744;2022-09-01T12:10:33;0;0;
67892;PMS7003;54688;52.376;16.744;2022-09-01T12:13:37;0;0;
67892;PMS7003;54688;52.376;16.744;2022-09-01T12:16:40;0;0;
67892;PMS7003;54688;52.376;16.744;2022-09-01T12:19:42;0;0;
67892;PMS7003;54688;52.376;16.744;2022-09-01T12:22:45;0;0;
67892;PMS7003;54688;52.376;16.744;2022-09-01T12:25:48;0;0;
67892;PMS7003;54688;52.376;16.744;2022-09-01T12:28:51;0;0;
67892;PMS7003;54688;52.376;16.744;2022-09-01T12:31:55;0;0;
67892;PMS7003;54688;52.376;16.744;2022-09-01T12:34:59;0;0;
67892;PMS7003;54688;52.376;16.744;2022-09-01T12:38:33;0;0;
67892;PMS7003;54688;52.376;16.744;2022-09-01T12:41:37;0;0;
67892;PMS7003;54688;52.376;16.744;2022-09-01T12:44:46;0;0;
67892;PMS7003;54688;52.376;16.744;2022-09-01T12:47:49;0;0;
67892;PMS7003;54688;52.376;16.744;2022-09-01T12:50:52;0;0;
67892;PMS7003;54688;52.376;16.744;2022-09-01T12:56:53;0;0;
67892;PMS7003;54688;52.376;16.744;2022-09-01T13:00:08;1;0;
67892;PMS7003;54688;52.376;16.744;2022-09-01T13:03:15;0;0;
67892;PMS7003;54688;52.376;16.744;2022-09-01T13:06:18;0;0;
67892;PMS7003;54688;52.376;16.744;2022-09-01T13:09:20;0;0;
67892;PMS7003;54688;52.376;16.744;2022-09-01T13:12:22;0;0;
67892;PMS7003;54688;52.376;16.744;2022-09-01T13:15:25;0;0;
67892;PMS7003;54688;52.376;16.744;2022-09-01T13:18:27;0;0;
67892;PMS7003;54688;52.376;16.744;2022-09-01T13:21:31;0;0;
67892;PMS7003;54688;52.376;16.744;2022-09-01T13:24:34;0;0;
67892;PMS7003;54688;52.376;16.744;2022-09-01T13:27:36;0;0;
67892;PMS7003;54688;52.376;16.744;2022-09-01T13:30:39;0;0;
67892;PMS7003;54688;52.376;16.744;2022-09-01T13:33:42;2;1;
67892;PMS7003;54688;52.376;16.744;2022-09-01T13:36:44;1;0;
67892;PMS7003;54688;52.376;16.744;2022-09-01T13:42:48;0;0;
67892;PMS7003;54688;52.376;16.744;2022-09-01T13:45:50;0;0;
67892;PMS7003;54688;52.376;16.744;2022-09-01T13:48:52;0;0;
67892;PMS7003;54688;52.376;16.744;2022-09-01T13:51:54;0;0;
67892;PMS7003;54688;52.376;16.744;2022-09-01T13:54:57;0;0;
67892;PMS7003;54688;52.376;16.744;2022-09-01T13:58:00;0;0;
67892;PMS7003;54688;52.376;16.744;2022-09-01T14:01:02;0;0;
67892;PMS7003;54688;52.376;16.744;2022-09-01T14:04:04;1;1;
67892;PMS7003;54688;52.376;16.744;2022-09-01T14:07:06;1;0;
67892;PMS7003;54688;52.376;16.744;2022-09-01T14:10:09;1;0;
67892;PMS7003;54688;52.376;16.744;2022-09-01T14:13:12;0;0;
67892;PMS7003;54688;52.376;16.744;2022-09-01T14:16:14;0;0;
67892;PMS7003;54688;52.376;16.744;2022-09-01T14:19:16;3;0;
67892;PMS7003;54688;52.376;16.744;2022-09-01T14:22:19;0;0;
67892;PMS7003;54688;52.376;16.744;2022-09-01T14:25:23;0;0;
67892;PMS7003;54688;52.376;16.744;2022-09-01T14:28:26;0;0;
67892;PMS7003;54688;52.376;16.744;2022-09-01T14:31:28;2;0;
67892;PMS7003;54688;52.376;16.744;2022-09-01T14:34:30;0;0;
67892;PMS7003;54688;52.376;16.744;2022-09-01T14:37:32;0;0;
67892;PMS7003;54688;52.376;16.744;2022-09-01T14:40:35;2;0;
67892;PMS7003;54688;52.376;16.744;2022-09-01T14:43:38;0;0;
67892;PMS7003;54688;52.376;16.744;2022-09-01T14:46:40;0;0;
67892;PMS7003;54688;52.376;16.744;2022-09-01T14:49:43;0;0;
67892;PMS7003;54688;52.376;16.744;2022-09-01T14:52:45;1;0;
67892;PMS7003;54688;52.376;16.744;2022-09-01T14:55:48;0;0;
67892;PMS7003;54688;52.376;16.744;2022-09-01T14:58:51;0;0;
67892;PMS7003;54688;52.376;16.744;2022-09-01T15:01:53;0;0;
67892;PMS7003;54688;52.376;16.744;2022-09-01T15:04:56;1;0;
67892;PMS7003;54688;52.376;16.744;2022-09-01T15:07:58;2;1;
67892;PMS7003;54688;52.376;16.744;2022-09-01T15:11:01;0;0;
67892;PMS7003;54688;52.376;16.744;2022-09-01T15:14:03;2;0;
67892;PMS7003;54688;52.376;16.744;2022-09-01T15:17:05;0;0;
67892;PMS7003;54688;52.376;16.744;2022-09-01T15:20:07;2;1;
67892;PMS7003;54688;52.376;16.744;2022-09-01T15:23:11;3;0;
67892;PMS7003;54688;52.376;16.744;2022-09-01T15:26:14;1;1;
67892;PMS7003;54688;52.376;16.744;2022-09-01T15:29:16;0;0;
67892;PMS7003;54688;52.376;16.744;2022-09-01T15:32:18;3;1;
67892;PMS7003;54688;52.376;16.744;2022-09-01T15:35:20;2;0;
67892;PMS7003;54688;52.376;16.744;2022-09-01T15:38:23;2;0;
67892;PMS7003;54688;52.376;16.744;2022-09-01T15:41:27;0;0;
67892;PMS7003;54688;52.376;16.744;2022-09-01T15:44:29;2;0;
67892;PMS7003;54688;52.376;16.744;2022-09-01T15:47:33;0;0;
67892;PMS7003;54688;52.376;16.744;2022-09-01T15:50:35;0;0;
67892;PMS7003;54688;52.376;16.744;2022-09-01T15:53:37;0;0;
67892;PMS7003;54688;52.376;16.744;2022-09-01T15:56:40;0;0;
67892;PMS7003;54688;52.376;16.744;2022-09-01T15:59:42;1;1;
67892;PMS7003;54688;52.376;16.744;2022-09-01T16:02:43;2;1;
67892;PMS7003;54688;52.376;16.744;2022-09-01T16:05:46;0;0;
67892;PMS7003;54688;52.376;16.744;2022-09-01T16:08:50;0;0;
67892;PMS7003;54688;52.376;16.744;2022-09-01T16:11:52;0;0;
67892;PMS7003;54688;52.376;16.744;2022-09-01T16:14:54;0;0;
67892;PMS7003;54688;52.376;16.744;2022-09-01T16:18:05;2;1;
67892;PMS7003;54688;52.376;16.744;2022-09-01T16:21:13;0;0;
67892;PMS7003;54688;52.376;16.744;2022-09-01T16:24:19;1;0;
67892;PMS7003;54688;52.376;16.744;2022-09-01T16:27:28;0;0;
67892;PMS7003;54688;52.376;16.744;2022-09-01T16:30:31;0;0;
67892;PMS7003;54688;52.376;16.744;2022-09-01T16:33:33;0;0;
67892;PMS7003;54688;52.376;16.744;2022-09-01T16:36:39;1;1;
67892;PMS7003;54688;52.376;16.744;2022-09-01T16:39:45;1;1;
67892;PMS7003;54688;52.376;16.744;2022-09-01T16:42:50;1;1;
67892;PMS7003;54688;52.376;16.744;2022-09-01T16:45:58;2;1;
67892;PMS7003;54688;52.376;16.744;2022-09-01T16:49:10;0;0;
67892;PMS7003;54688;52.376;16.744;2022-09-01T16:52:21;0;0;
67892;PMS7003;54688;52.376;16.744;2022-09-01T16:55:30;0;0;
67892;PMS7003;54688;52.376;16.744;2022-09-01T16:58:43;0;0;
67892;PMS7003;54688;52.376;16.744;2022-09-01T17:01:52;0;0;
67892;PMS7003;54688;52.376;16.744;2022-09-01T17:05:00;0;0;
67892;PMS7003;54688;52.376;16.744;2022-09-01T17:08:10;2;0;
67892;PMS7003;54688;52.376;16.744;2022-09-01T17:11:20;1;1;
67892;PMS7003;54688;52.376;16.744;2022-09-01T17:14:32;3;0;
67892;PMS7003;54688;52.376;16.744;2022-09-01T17:17:41;0;0;
67892;PMS7003;54688;52.376;16.744;2022-09-01T17:20:47;1;1;
67892;PMS7003;54688;52.376;16.744;2022-09-01T17:23:55;0;0;
67892;PMS7003;54688;52.376;16.744;2022-09-01T17:27:01;2;0;
67892;PMS7003;54688;52.376;16.744;2022-09-01T17:30:07;1;1;
67892;PMS7003;54688;52.376;16.744;2022-09-01T17:33:16;0;0;
67892;PMS7003;54688;52.376;16.744;2022-09-01T17:36:32;0;0;
67892;PMS7003;54688;52.376;16.744;2022-09-01T17:39:43;1;1;
67892;PMS7003;54688;52.376;16.744;2022-09-01T17:42:54;4;1;
67892;PMS7003;54688;52.376;16.744;2022-09-01T17:46:04;0;0;
67892;PMS7003;54688;52.376;16.744;2022-09-01T17:49:16;1;0;
67892;PMS7003;54688;52.376;16.744;2022-09-01T17:52:23;0;0;
67892;PMS7003;54688;52.376;16.744;2022-09-01T17:55:38;0;0;
67892;PMS7003;54688;52.376;16.744;2022-09-01T17:58:48;1;1;
67892;PMS7003;54688;52.376;16.744;2022-09-01T18:02:00;1;0;
67892;PMS7003;54688;52.376;16.744;2022-09-01T18:05:07;1;0;
67892;PMS7003;54688;52.376;16.744;2022-09-01T18:08:19;2;1;
67892;PMS7003;54688;52.376;16.744;2022-09-01T18:11:30;0;0;
67892;PMS7003;54688;52.376;16.744;2022-09-01T18:14:40;0;0;
67892;PMS7003;54688;52.376;16.744;2022-09-01T18:17:46;4;1;
67892;PMS7003;54688;52.376;16.744;2022-09-01T18:20:49;2;1;
67892;PMS7003;54688;52.376;16.744;2022-09-01T18:24:03;1;1;
67892;PMS7003;54688;52.376;16.744;2022-09-01T18:27:07;0;0;
67892;PMS7003;54688;52.376;16.744;2022-09-01T18:30:13;3;2;
67892;PMS7003;54688;52.376;16.744;2022-09-01T18:33:23;1;1;
67892;PMS7003;54688;52.376;16.744;2022-09-01T18:36:32;1;1;
67892;PMS7003;54688;52.376;16.744;2022-09-01T18:39:45;0;0;
67892;PMS7003;54688;52.376;16.744;2022-09-01T18:42:57;1;1;
67892;PMS7003;54688;52.376;16.744;2022-09-01T18:46:06;1;1;
67892;PMS7003;54688;52.376;16.744;2022-09-01T18:49:18;3;1;
67892;PMS7003;54688;52.376;16.744;2022-09-01T18:52:37;1;1;
67892;PMS7003;54688;52.376;16.744;2022-09-01T18:55:49;3;2;
67892;PMS7003;54688;52.376;16.744;2022-09-01T18:59:06;4;1;
67892;PMS7003;54688;52.376;16.744;2022-09-01T19:02:21;2;2;
67892;PMS7003;54688;52.376;16.744;2022-09-01T19:05:34;2;2;
67892;PMS7003;54688;52.376;16.744;2022-09-01T19:08:46;5;1;
67892;PMS7003;54688;52.376;16.744;2022-09-01T19:12:00;4;1;
67892;PMS7003;54688;52.376;16.744;2022-09-01T19:15:07;4;0;
67892;PMS7003;54688;52.376;16.744;2022-09-01T19:18:21;4;2;
67892;PMS7003;54688;52.376;16.744;2022-09-01T19:21:29;2;2;
67892;PMS7003;54688;52.376;16.744;2022-09-01T19:24:37;1;1;
67892;PMS7003;54688;52.376;16.744;2022-09-01T19:27:41;1;1;
67892;PMS7003;54688;52.376;16.744;2022-09-01T19:30:47;2;2;
67892;PMS7003;54688;52.376;16.744;2022-09-01T19:33:53;3;1;
67892;PMS7003;54688;52.376;16.744;2022-09-01T19:36:57;2;2;
67892;PMS7003;54688;52.376;16.744;2022-09-01T19:40:00;3;2;
67892;PMS7003;54688;52.376;16.744;2022-09-01T19:43:06;1;1;
67892;PMS7003;54688;52.376;16.744;2022-09-01T19:46:15;3;2;
67892;PMS7003;54688;52.376;16.744;2022-09-01T19:49:27;0;0;
67892;PMS7003;54688;52.376;16.744;2022-09-01T19:52:37;1;1;
67892;PMS7003;54688;52.376;16.744;2022-09-01T19:55:45;0;0;
67892;PMS7003;54688;52.376;16.744;2022-09-01T19:58:54;4;2;
67892;PMS7003;54688;52.376;16.744;2022-09-01T20:01:59;3;0;
67892;PMS7003;54688;52.376;16.744;2022-09-01T20:05:10;2;2;
67892;PMS7003;54688;52.376;16.744;2022-09-01T20:08:15;0;0;
67892;PMS7003;54688;52.376;16.744;2022-09-01T20:11:27;1;1;
67892;PMS7003;54688;52.376;16.744;2022-09-01T20:14:43;2;2;
67892;PMS7003;54688;52.376;16.744;2022-09-01T20:17:54;2;2;
67892;PMS7003;54688;52.376;16.744;2022-09-01T20:21:01;1;1;
67892;PMS7003;54688;52.376;16.744;2022-09-01T20:24:09;1;0;
67892;PMS7003;54688;52.376;16.744;2022-09-01T20:27:24;2;1;
67892;PMS7003;54688;52.376;16.744;2022-09-01T20:30:34;1;1;
67892;PMS7003;54688;52.376;16.744;2022-09-01T20:33:41;3;1;
67892;PMS7003;54688;52.376;16.744;2022-09-01T20:36:47;3;0;
67892;PMS7003;54688;52.376;16.744;2022-09-01T20:39:54;1;1;
67892;PMS7003;54688;52.376;16.744;2022-09-01T20:43:06;5;2;
67892;PMS7003;54688;52.376;16.744;2022-09-01T20:46:09;2;1;
67892;PMS7003;54688;52.376;16.744;2022-09-01T20:49:12;0;0;
67892;PMS7003;54688;52.376;16.744;2022-09-01T20:52:24;2;1;
67892;PMS7003;54688;52.376;16.744;2022-09-01T20:55:29;0;0;
67892;PMS7003;54688;52.376;16.744;2022-09-01T20:58:36;3;2;
67892;PMS7003;54688;52.376;16.744;2022-09-01T21:01:46;2;2;
67892;PMS7003;54688;52.376;16.744;2022-09-01T21:04:54;0;0;
67892;PMS7003;54688;52.376;16.744;2022-09-01T21:08:14;0;0;
67892;PMS7003;54688;52.376;16.744;2022-09-01T21:11:25;2;1;
67892;PMS7003;54688;52.376;16.744;2022-09-01T21:14:39;0;0;
67892;PMS7003;54688;52.376;16.744;2022-09-01T21:17:53;1;1;